createdAt,value
2023-04-01T00:23:50.091Z,1005.92
2023-04-01T00:52:07.794Z,1005.99
2023-04-01T01:20:29.337Z,1005.99
2023-04-01T01:48:47.674Z,1005.77
2023-04-01T02:17:09.477Z,1005.83
2023-04-01T02:45:34.574Z,1005.69
2023-04-01T03:13:52.815Z,1005.52
2023-04-01T03:42:17.328Z,1005.48
2023-04-01T04:11:21.339Z,1005.29
2023-04-01T04:40:25.381Z,1005.46
2023-04-01T05:09:23.232Z,1005.3
2023-04-01T05:38:15.620Z,1005.07
2023-04-01T06:07:18.667Z,1005.03
2023-04-01T06:36:21.677Z,1005.01
2023-04-01T07:05:15.148Z,1005.04
2023-04-01T07:34:02.358Z,1005.31
2023-04-01T08:03:05.073Z,1005.65
2023-04-01T08:31:56.934Z,1005.87
2023-04-01T09:00:52.345Z,1006.17
2023-04-01T09:29:40.801Z,1006.33
2023-04-01T09:58:44.842Z,1006.41
2023-04-01T10:27:08.923Z,1006.5
2023-04-01T10:56:10.462Z,1006.66
2023-04-01T11:25:10.985Z,1006.72
2023-04-01T11:54:04.528Z,1006.83
2023-04-01T12:23:12.245Z,1006.97
2023-04-01T12:52:06.424Z,1007.11
2023-04-01T13:21:10.746Z,1007.21
2023-04-01T13:50:10.414Z,1007.21
2023-04-01T14:19:15.954Z,1007.28
2023-04-01T14:48:13.395Z,1007.2
2023-04-01T15:17:18.055Z,1007.08
2023-04-01T15:46:17.963Z,1007.2
2023-04-01T16:15:19.233Z,1007.15
2023-04-01T16:44:16.910Z,1007
2023-04-01T17:13:10.828Z,1007.66
2023-04-01T17:42:14.737Z,1008.13
2023-04-01T18:11:01.492Z,1008.33
2023-04-01T18:39:35.661Z,1008.39
2023-04-01T19:08:33.056Z,1008.71
2023-04-01T19:37:25.970Z,1009.48
2023-04-01T20:06:04.699Z,1009.83
2023-04-01T20:34:57.505Z,1009.94
2023-04-01T21:03:50.376Z,1010.1
2023-04-01T21:32:35.948Z,1010.35
2023-04-01T22:01:38.380Z,1010.42
2023-04-01T22:30:01.605Z,1010.5
2023-04-01T22:58:24.571Z,1010.6
2023-04-01T23:26:47.260Z,1010.69
2023-04-01T23:55:03.333Z,1010.82
